Terminal Aerodrome Forecast
Issued by NWS Jackson, KY

Home | Current Version | Previous Version | Text Only | Print | Product List | Glossary On
Versions: 1 2 3 4 5 6 7 8 9 10 11 12 13 14 15 16 17 18 19 20 21 22 23 24
000
FTUS43 KJKL 061750
TAFLOZ
TAF
KLOZ 061750Z 0618/0718 VRB03KT P6SM VCSH SCT040 OVC090
     FM062100 VRB03KT P6SM OVC050
     FM070400 VRB05KT P6SM OVC015
     FM071100 04006KT P6SM SCT025=

USA.gov is the U.S. government's official web portal to all federal, state and local government web resources and services.